Time;durP1;ratioP1;P1;durP2;ratioP2;P2;SDS_P1;SDS_P2;PMS_P1;PMS_P2;Temp;Humidity;BMP_temperature;BMP_pressure;BME280_temperature;BME280_humidity;BME280_pressure;Samples;Min_cycle;Max_cycle;Signal;HPM_P1;HPM_P2
2022/06/22 00:01:39;;;;;;;4.97;1.45;;;13.60;99.90;;;;;;5073120;28;20119;-84
2022/06/22 00:04:06;;;;;;;6.40;1.60;;;13.60;99.90;;;;;;5058131;28;20481;-84
2022/06/22 00:06:59;;;;;;;5.65;1.55;;;13.50;99.90;;;;;;5076176;28;20016;-84
2022/06/22 00:09:30;;;;;;;3.33;1.33;;;13.40;99.90;;;;;;5078605;28;20404;-84
2022/06/22 00:11:57;;;;;;;3.97;1.58;;;13.40;99.90;;;;;;5068307;28;20028;-84
2022/06/22 00:14:45;;;;;;;1.95;1.58;;;13.30;99.90;;;;;;5073974;28;20103;-84
2022/06/22 00:17:44;;;;;;;3.20;1.40;;;13.20;99.90;;;;;;5069849;28;20062;-84
2022/06/22 00:24:05;;;;;;;2.08;1.42;;;13.10;99.90;;;;;;5051248;28;20097;-84
2022/06/22 00:26:36;;;;;;;3.90;1.42;;;13.10;99.90;;;;;;5073449;28;20396;-84
2022/06/22 00:29:05;;;;;;;2.10;1.35;;;13.10;99.90;;;;;;5068954;28;20044;-84
2022/06/22 00:31:39;;;;;;;2.58;1.25;;;13.10;99.90;;;;;;5072847;28;20033;-84
2022/06/22 00:34:10;;;;;;;1.20;1.08;;;13.10;99.90;;;;;;5072975;28;20044;-84
2022/06/22 00:37:05;;;;;;;1.33;1.10;;;13.20;99.90;;;;;;5081586;28;20104;-84
2022/06/22 00:39:31;;;;;;;5.70;1.90;;;13.20;99.90;;;;;;5077870;28;20388;-84
2022/06/22 00:42:21;;;;;;;7.47;2.05;;;13.20;99.90;;;;;;5086287;28;20021;-84
2022/06/22 00:44:57;;;;;;;2.05;1.35;;;13.10;99.90;;;;;;5063508;28;20051;-84
2022/06/22 00:47:29;;;;;;;1.40;1.20;;;13.10;99.90;;;;;;5073809;28;20025;-84
2022/06/22 00:50:14;;;;;;;3.50;1.35;;;13.00;99.90;;;;;;5074879;28;20032;-84
2022/06/22 00:52:45;;;;;;;2.42;1.58;;;13.00;99.90;;;;;;5058226;28;20532;-84
2022/06/22 00:55:27;;;;;;;5.88;1.75;;;13.00;99.90;;;;;;5072117;28;20028;-85
2022/06/22 00:58:09;;;;;;;2.03;1.52;;;13.00;99.90;;;;;;5071728;28;20078;-84
2022/06/22 01:00:38;;;;;;;5.35;1.42;;;12.90;99.90;;;;;;5071534;28;20039;-84
2022/06/22 01:03:33;;;;;;;4.97;1.52;;;12.90;99.90;;;;;;5061561;28;20082;-84
2022/06/22 01:06:07;;;;;;;3.38;1.30;;;12.90;99.90;;;;;;5063389;28;20017;-84
2022/06/22 01:08:57;;;;;;;6.82;2.13;;;12.80;99.90;;;;;;5069362;28;20045;-84
2022/06/22 01:14:39;;;;;;;3.92;1.70;;;12.80;99.90;;;;;;5063625;28;20032;-84
2022/06/22 01:17:11;;;;;;;5.45;1.45;;;12.80;99.90;;;;;;5081481;28;20099;-84
2022/06/22 01:20:17;;;;;;;3.72;1.80;;;12.80;99.90;;;;;;5086033;28;20407;-84
2022/06/22 01:22:45;;;;;;;4.95;1.70;;;12.80;99.90;;;;;;5071404;28;20020;-84
2022/06/22 01:25:35;;;;;;;2.15;1.58;;;12.70;99.90;;;;;;5068610;28;20037;-84
2022/06/22 01:28:01;;;;;;;3.47;1.75;;;12.70;99.90;;;;;;5071324;28;20059;-84
2022/06/22 01:30:37;;;;;;;6.45;1.65;;;12.70;99.90;;;;;;5070822;28;20044;-84
2022/06/22 01:33:26;;;;;;;2.83;1.60;;;12.70;99.90;;;;;;5064463;28;20039;-84
2022/06/22 01:35:58;;;;;;;3.38;1.45;;;12.60;99.90;;;;;;5067142;28;20542;-84
2022/06/22 01:38:28;;;;;;;2.55;1.67;;;12.60;99.90;;;;;;5070867;28;20040;-84
2022/06/22 01:41:23;;;;;;;3.67;1.70;;;12.60;99.90;;;;;;5070584;28;20032;-85
2022/06/22 01:44:16;;;;;;;2.65;1.67;;;12.60;99.90;;;;;;5067811;28;20029;-84
2022/06/22 01:46:50;;;;;;;2.00;1.27;;;12.60;99.90;;;;;;5066973;28;20388;-84
2022/06/22 01:49:31;;;;;;;2.50;1.65;;;12.60;99.90;;;;;;5062583;28;20017;-84
2022/06/22 01:52:08;;;;;;;3.10;1.58;;;12.60;99.90;;;;;;5071884;28;20512;-84
2022/06/22 01:54:43;;;;;;;3.90;2.00;;;12.50;99.90;;;;;;5071190;28;20020;-84
2022/06/22 01:57:40;;;;;;;4.97;1.95;;;12.50;99.90;;;;;;5069804;28;20377;-84
2022/06/22 02:00:16;;;;;;;3.60;1.50;;;12.40;99.90;;;;;;5076467;28;20032;-84
2022/06/22 02:03:14;;;;;;;7.55;1.80;;;12.40;99.90;;;;;;5068919;28;20037;-84
2022/06/22 02:06:01;;;;;;;5.70;1.60;;;12.30;99.90;;;;;;5074927;28;20021;-84
2022/06/22 02:08:49;;;;;;;7.88;1.75;;;12.30;99.90;;;;;;5062760;28;20041;-84
2022/06/22 02:11:20;;;;;;;2.78;1.55;;;12.30;99.90;;;;;;5074098;28;20020;-83
2022/06/22 02:14:08;;;;;;;3.17;2.00;;;12.30;99.90;;;;;;5068757;28;20096;-84
2022/06/22 02:17:00;;;;;;;3.70;1.77;;;12.30;99.90;;;;;;5069191;28;20028;-83
2022/06/22 02:19:29;;;;;;;1.33;1.23;;;12.30;99.90;;;;;;5058626;28;20053;-84
2022/06/22 02:22:03;;;;;;;3.75;1.70;;;12.30;99.90;;;;;;5072358;28;20089;-84
2022/06/22 02:24:47;;;;;;;2.08;1.42;;;12.40;99.90;;;;;;5069520;28;20029;-84
2022/06/22 02:27:23;;;;;;;2.70;1.40;;;12.30;99.90;;;;;;5057046;28;20025;-84
2022/06/22 02:29:56;;;;;;;1.55;1.45;;;12.30;99.90;;;;;;5072228;28;20021;-84
2022/06/22 02:32:28;;;;;;;4.72;1.85;;;12.30;99.90;;;;;;5072190;28;20067;-84
2022/06/22 02:35:07;;;;;;;4.50;1.60;;;12.20;99.90;;;;;;5070834;28;20078;-84
2022/06/22 02:37:38;;;;;;;5.45;2.03;;;12.20;99.90;;;;;;5071982;28;20614;-84
2022/06/22 02:44:29;;;;;;;2.88;1.75;;;12.20;99.90;;;;;;5069859;28;20028;-84
2022/06/22 02:46:17;;;;;;;1.30;1.02;;;12.10;99.90;;;;;;5062646;28;20032;-84
2022/06/22 02:48:45;;;;;;;;;;;12.10;99.90;;;;;;5091411;28;20020;-84
2022/06/22 02:51:20;;;;;;;2.03;1.35;;;12.10;99.90;;;;;;5065948;28;19915;-84
2022/06/22 02:53:54;;;;;;;4.80;1.63;;;12.10;99.90;;;;;;5075044;28;20381;-84
2022/06/22 02:56:31;;;;;;;5.00;1.67;;;12.10;99.90;;;;;;5087722;28;20037;-84
2022/06/22 02:58:56;;;;;;;6.10;2.22;;;12.00;99.90;;;;;;5075342;28;20021;-84
2022/06/22 03:01:29;;;;;;;1.88;1.58;;;12.00;99.90;;;;;;5070558;28;20028;-85
2022/06/22 03:03:58;;;;;;;2.45;1.70;;;12.00;99.90;;;;;;5076365;28;20169;-84
2022/06/22 03:06:35;;;;;;;3.67;1.88;;;12.00;99.90;;;;;;5086680;28;20036;-84
2022/06/22 03:09:08;;;;;;;6.03;2.03;;;12.00;99.90;;;;;;5068174;28;20048;-84
2022/06/22 03:11:38;;;;;;;4.10;1.80;;;12.00;99.90;;;;;;5074440;28;20025;-84
2022/06/22 03:17:22;;;;;;;2.88;1.98;;;12.00;99.90;;;;;;5092037;28;20059;-84
2022/06/22 03:20:00;;;;;;;2.78;1.70;;;12.00;99.90;;;;;;5072480;28;20410;-84
2022/06/22 03:22:53;;;;;;;3.67;1.40;;;11.90;99.90;;;;;;5075323;28;20029;-84
2022/06/22 03:25:24;;;;;;;1.52;1.30;;;11.90;99.90;;;;;;5068333;28;20033;-84
2022/06/22 03:28:03;;;;;;;1.38;1.27;;;12.00;99.90;;;;;;5073397;28;20040;-84
2022/06/22 03:30:57;;;;;;;2.80;1.52;;;12.00;99.90;;;;;;5076078;28;20744;-84
2022/06/22 03:33:53;;;;;;;1.30;1.25;;;12.00;99.90;;;;;;5074885;28;20048;-84
2022/06/22 03:36:37;;;;;;;3.47;1.80;;;12.00;99.90;;;;;;5071341;28;20025;-84
2022/06/22 03:39:11;;;;;;;7.97;2.03;;;12.00;99.90;;;;;;5061719;28;20476;-84
2022/06/22 03:42:00;;;;;;;3.00;1.98;;;12.00;99.90;;;;;;5073470;28;20040;-84
2022/06/22 03:44:36;;;;;;;3.72;1.70;;;12.00;99.90;;;;;;5071018;28;20028;-84
2022/06/22 03:47:27;;;;;;;5.03;2.05;;;12.00;99.90;;;;;;5080066;28;20477;-83
2022/06/22 03:50:03;;;;;;;3.67;2.30;;;12.00;99.90;;;;;;5072850;28;20491;-84
2022/06/22 03:52:58;;;;;;;2.00;1.58;;;12.00;99.90;;;;;;5065944;28;20020;-84
2022/06/22 03:55:34;;;;;;;4.15;1.90;;;12.00;99.90;;;;;;5073263;28;20063;-84
2022/06/22 03:58:02;;;;;;;5.32;1.85;;;12.10;99.90;;;;;;5054754;28;20044;-84
2022/06/22 04:00:28;;;;;;;2.08;1.67;;;12.10;99.90;;;;;;5072578;28;20066;-84
2022/06/22 04:02:55;;;;;;;7.72;2.10;;;12.10;99.90;;;;;;5071792;28;20029;-84
2022/06/22 04:05:25;;;;;;;2.88;1.42;;;12.20;99.90;;;;;;5071212;28;20119;-84
2022/06/22 04:07:52;;;;;;;2.80;1.92;;;12.20;99.90;;;;;;5072395;28;20037;-84
2022/06/22 04:11:12;;;;;;;2.53;1.67;;;12.30;99.90;;;;;;5072387;28;20397;-84
2022/06/22 04:13:51;;;;;;;7.50;2.58;;;12.30;99.90;;;;;;5058556;28;20524;-84
2022/06/22 04:16:26;;;;;;;5.65;1.92;;;12.40;99.90;;;;;;5068771;28;20021;-84
2022/06/22 04:18:56;;;;;;;2.53;1.95;;;12.50;99.90;;;;;;5073512;28;20035;-83
2022/06/22 04:21:33;;;;;;;5.13;2.10;;;12.60;99.90;;;;;;5072975;28;20562;-84
2022/06/22 04:24:11;;;;;;;11.95;2.17;;;12.60;99.90;;;;;;5073412;28;20118;-84
2022/06/22 04:27:00;;;;;;;1.95;1.73;;;12.70;99.90;;;;;;5069246;28;20124;-84
2022/06/22 04:29:59;;;;;;;3.53;1.70;;;12.70;99.90;;;;;;5066952;28;20074;-84
2022/06/22 04:32:41;;;;;;;3.53;1.88;;;12.70;99.90;;;;;;5078792;28;20051;-83
2022/06/22 04:35:47;;;;;;;4.60;2.03;;;12.80;99.90;;;;;;5072091;28;20060;-83
2022/06/22 04:38:32;;;;;;;4.80;2.20;;;12.80;99.90;;;;;;5059853;28;20041;-83
2022/06/22 04:41:24;;;;;;;3.60;1.90;;;12.90;99.90;;;;;;5073834;28;20025;-83
2022/06/22 04:43:51;;;;;;;2.50;2.00;;;12.90;99.90;;;;;;5066586;28;20591;-84
2022/06/22 04:46:45;;;;;;;5.47;1.70;;;13.00;99.90;;;;;;5073504;28;20464;-84
2022/06/22 04:49:31;;;;;;;2.42;1.80;;;13.10;99.90;;;;;;5065205;28;20476;-84
2022/06/22 04:52:13;;;;;;;3.67;1.92;;;13.20;99.90;;;;;;5071640;28;20021;-84
2022/06/22 04:54:40;;;;;;;3.33;1.90;;;13.20;99.90;;;;;;5055938;28;20119;-84
2022/06/22 04:57:23;;;;;;;3.95;2.00;;;13.30;99.90;;;;;;5073094;28;20020;-84
2022/06/22 04:59:49;;;;;;;4.72;2.03;;;13.40;99.90;;;;;;5071636;28;20476;-85
2022/06/22 05:02:20;;;;;;;2.25;1.65;;;13.50;99.90;;;;;;5071330;28;20025;-84
2022/06/22 05:04:51;;;;;;;2.83;2.00;;;13.60;99.90;;;;;;5082888;28;20026;-84
2022/06/22 05:08:01;;;;;;;4.50;2.03;;;13.70;99.90;;;;;;5074553;28;20032;-85
2022/06/22 05:10:42;;;;;;;6.95;2.03;;;13.80;99.90;;;;;;5072771;28;20032;-84
2022/06/22 05:13:14;;;;;;;7.60;1.88;;;13.90;99.90;;;;;;5063603;28;20039;-85
2022/06/22 05:15:47;;;;;;;7.18;2.40;;;14.10;99.90;;;;;;5071204;28;20191;-85
2022/06/22 05:18:20;;;;;;;14.07;2.25;;;14.20;99.90;;;;;;5067596;28;20028;-84
2022/06/22 05:21:12;;;;;;;5.05;1.90;;;14.30;99.90;;;;;;5065186;28;20031;-85
2022/06/22 05:23:54;;;;;;;4.55;1.50;;;14.40;99.90;;;;;;5039824;28;20036;-84
2022/06/22 05:26:22;;;;;;;11.00;1.75;;;14.70;99.90;;;;;;5068260;28;20025;-84
2022/06/22 05:29:03;;;;;;;3.95;1.63;;;14.70;99.90;;;;;;5067204;28;21123;-84
2022/06/22 05:31:34;;;;;;;11.68;1.73;;;14.90;99.90;;;;;;5065200;28;20017;-84
2022/06/22 05:34:04;;;;;;;4.50;1.27;;;15.00;99.90;;;;;;5063088;28;20408;-84
2022/06/22 05:36:53;;;;;;;10.98;2.92;;;15.10;99.90;;;;;;5068795;28;20111;-85
2022/06/22 05:39:18;;;;;;;3.80;1.40;;;15.20;99.90;;;;;;5070705;28;20032;-85
2022/06/22 05:41:47;;;;;;;4.57;1.40;;;15.30;99.90;;;;;;5071997;28;20077;-85
2022/06/22 05:44:16;;;;;;;3.17;1.92;;;15.40;99.90;;;;;;5067874;28;21642;-85
2022/06/22 05:46:57;;;;;;;7.63;1.63;;;15.40;99.90;;;;;;5062062;28;20034;-85
2022/06/22 05:49:29;;;;;;;5.40;1.40;;;15.50;99.90;;;;;;5057843;28;20028;-85
2022/06/22 05:52:15;;;;;;;8.52;1.45;;;15.60;99.90;;;;;;5056018;28;20107;-85
2022/06/22 05:54:52;;;;;;;10.27;1.25;;;15.70;99.90;;;;;;5064991;28;20012;-85
2022/06/22 05:57:45;;;;;;;3.35;1.33;;;15.90;99.90;;;;;;5070552;28;20035;-85
2022/06/22 06:00:19;;;;;;;8.00;2.17;;;16.00;99.90;;;;;;5069089;28;20099;-85
2022/06/22 06:03:04;;;;;;;8.15;1.48;;;16.10;99.90;;;;;;5072346;28;20024;-85
2022/06/22 06:05:40;;;;;;;9.95;1.95;;;16.10;99.90;;;;;;5067886;28;20033;-85
2022/06/22 06:08:53;;;;;;;7.78;2.35;;;16.20;99.90;;;;;;5069216;28;20040;-84
2022/06/22 06:11:22;;;;;;;5.40;1.40;;;16.20;99.90;;;;;;5058851;28;20046;-85
2022/06/22 06:14:02;;;;;;;8.20;1.67;;;16.20;99.90;;;;;;5071375;28;20031;-85
2022/06/22 06:16:38;;;;;;;12.00;2.00;;;16.20;99.90;;;;;;5072674;28;20031;-85
2022/06/22 06:19:05;;;;;;;12.55;2.97;;;16.30;99.90;;;;;;5076018;28;20031;-84
2022/06/22 06:21:34;;;;;;;7.80;1.58;;;16.30;99.90;;;;;;5075353;28;20124;-85
2022/06/22 06:24:10;;;;;;;5.55;1.65;;;16.30;99.90;;;;;;5074266;28;20654;-85
2022/06/22 06:30:19;;;;;;;4.95;1.48;;;16.50;99.90;;;;;;5075413;28;20036;-84
2022/06/22 06:33:17;;;;;;;19.52;2.72;;;16.50;99.90;;;;;;5068976;28;20044;-85
2022/06/22 06:35:51;;;;;;;6.25;2.08;;;16.60;99.90;;;;;;5071947;28;20419;-85
2022/06/22 06:38:38;;;;;;;2.38;1.25;;;16.60;99.90;;;;;;5073577;28;20100;-85
2022/06/22 06:41:24;;;;;;;9.52;2.20;;;16.60;99.90;;;;;;5069524;28;20445;-84
2022/06/22 06:43:52;;;;;;;;;;;16.70;99.90;;;;;;5074749;28;20032;-84
2022/06/22 06:46:36;;;;;;;8.02;1.67;;;16.70;99.90;;;;;;5074066;28;19922;-85
2022/06/22 06:49:15;;;;;;;3.85;1.70;;;16.80;99.90;;;;;;5070457;28;20395;-85
2022/06/22 06:51:47;;;;;;;3.95;1.40;;;16.80;99.90;;;;;;5076004;28;20051;-85
2022/06/22 06:54:36;;;;;;;6.88;1.70;;;16.90;99.90;;;;;;5073201;28;20384;-85
2022/06/22 06:57:12;;;;;;;8.88;1.83;;;17.00;99.90;;;;;;5074935;28;20033;-84
2022/06/22 06:59:39;;;;;;;6.30;1.67;;;17.10;99.90;;;;;;5075761;28;20368;-85
2022/06/22 07:02:28;;;;;;;2.88;1.58;;;17.10;99.90;;;;;;5078237;28;20063;-84
2022/06/22 07:04:55;;;;;;;5.97;1.77;;;17.10;99.90;;;;;;5073085;28;20029;-84
2022/06/22 07:07:45;;;;;;;3.85;1.58;;;17.30;99.90;;;;;;5068823;28;20473;-85
2022/06/22 07:10:32;;;;;;;4.22;1.50;;;17.30;99.90;;;;;;5058527;28;20120;-84
2022/06/22 07:13:00;;;;;;;8.88;1.60;;;17.30;99.90;;;;;;5071333;28;20032;-84
2022/06/22 07:15:35;;;;;;;6.97;1.75;;;17.30;99.90;;;;;;5070893;28;20029;-85
2022/06/22 07:18:14;;;;;;;7.85;2.10;;;17.40;99.90;;;;;;5071513;28;20048;-84
2022/06/22 07:20:44;;;;;;;7.53;1.88;;;17.50;99.90;;;;;;5073863;28;20092;-84
2022/06/22 07:23:16;;;;;;;6.57;2.10;;;17.50;99.90;;;;;;5069834;28;20028;-84
2022/06/22 07:25:56;;;;;;;10.40;1.92;;;17.50;99.90;;;;;;5071867;28;20423;-84
2022/06/22 07:28:28;;;;;;;3.20;1.60;;;17.60;99.90;;;;;;5063693;28;20048;-84
2022/06/22 07:31:09;;;;;;;9.52;1.80;;;17.60;99.90;;;;;;5073102;28;20073;-84
2022/06/22 07:33:57;;;;;;;4.22;1.90;;;17.70;99.90;;;;;;5059987;28;20047;-84
2022/06/22 07:36:34;;;;;;;5.85;1.73;;;17.70;99.90;;;;;;5063735;28;20104;-85
2022/06/22 07:39:10;;;;;;;10.15;2.00;;;17.70;99.90;;;;;;5071954;28;20105;-84
2022/06/22 07:41:36;;;;;;;6.80;1.85;;;17.70;99.90;;;;;;5068329;28;20029;-84
2022/06/22 07:44:13;;;;;;;8.10;2.08;;;17.80;99.90;;;;;;5074060;28;20028;-85
2022/06/22 07:47:08;;;;;;;6.53;2.58;;;17.80;99.90;;;;;;5056608;28;20033;-85
2022/06/22 07:49:42;;;;;;;7.53;2.40;;;17.90;99.90;;;;;;5074932;28;20059;-85
2022/06/22 07:52:14;;;;;;;5.57;2.15;;;18.00;99.90;;;;;;5074087;28;20028;-85
2022/06/22 07:54:58;;;;;;;5.82;2.10;;;18.00;99.90;;;;;;5066982;28;20377;-84
2022/06/22 07:57:52;;;;;;;13.55;1.80;;;18.10;99.90;;;;;;5053295;28;20052;-85
2022/06/22 08:00:21;;;;;;;8.98;2.05;;;18.20;99.90;;;;;;5053509;28;20085;-84
2022/06/22 08:03:00;;;;;;;8.32;2.33;;;18.30;99.90;;;;;;5069831;28;20357;-84
2022/06/22 08:05:31;;;;;;;5.28;2.03;;;18.40;99.90;;;;;;5072576;28;20138;-84
2022/06/22 08:08:16;;;;;;;7.00;2.05;;;18.50;99.90;;;;;;5072398;28;20143;-85
2022/06/22 08:11:17;;;;;;;8.40;1.95;;;18.50;99.90;;;;;;5074487;28;20078;-86
2022/06/22 08:13:52;;;;;;;12.80;2.58;;;18.60;99.90;;;;;;5073734;28;20523;-86
2022/06/22 08:16:31;;;;;;;5.32;2.13;;;18.80;99.90;;;;;;5053922;28;20053;-85
2022/06/22 08:18:56;;;;;;;3.78;1.58;;;18.80;99.90;;;;;;5063577;28;20028;-84
2022/06/22 08:21:23;;;;;;;8.70;2.65;;;18.80;99.90;;;;;;5074323;28;20029;-85
2022/06/22 08:23:52;;;;;;;7.25;1.95;;;18.90;99.90;;;;;;5072418;28;20107;-86
2022/06/22 08:26:37;;;;;;;12.70;2.47;;;19.00;99.90;;;;;;5062340;28;20087;-85
2022/06/22 08:29:04;;;;;;;6.10;2.08;;;19.10;99.90;;;;;;5054028;28;20476;-85
2022/06/22 08:31:36;;;;;;;11.48;2.40;;;19.10;99.90;;;;;;5073452;28;20046;-85
2022/06/22 08:34:07;;;;;;;8.63;2.05;;;19.20;99.90;;;;;;5094159;28;20020;-85
2022/06/22 08:36:41;;;;;;;4.50;1.58;;;19.20;99.90;;;;;;5071868;28;20013;-85
2022/06/22 08:39:48;;;;;;;4.85;1.75;;;19.30;99.90;;;;;;5076253;28;20054;-86
2022/06/22 08:42:23;;;;;;;9.40;2.50;;;19.30;99.90;;;;;;5066813;28;20030;-86
2022/06/22 08:45:14;;;;;;;10.80;2.33;;;19.40;99.90;;;;;;5061284;28;20032;-86
2022/06/22 08:48:20;;;;;;;5.28;1.83;;;19.40;99.90;;;;;;5053759;28;20085;-86
2022/06/22 08:51:35;;;;;;;8.20;2.30;;;19.50;99.90;;;;;;5053760;28;20037;-86
2022/06/22 08:54:23;;;;;;;8.48;2.17;;;19.60;99.90;;;;;;5072810;28;20020;-86
2022/06/22 08:57:14;;;;;;;9.80;2.17;;;19.70;99.90;;;;;;5068923;28;20025;-85
2022/06/22 09:00:12;;;;;;;9.20;1.95;;;19.70;99.90;;;;;;5070464;28;20175;-85
2022/06/22 09:03:15;;;;;;;4.43;1.73;;;19.80;99.90;;;;;;5072705;28;20036;-86
2022/06/22 09:05:46;;;;;;;5.15;1.52;;;19.90;99.90;;;;;;5053340;28;20029;-86
2022/06/22 09:09:04;;;;;;;6.47;1.75;;;19.90;99.90;;;;;;5087375;28;20491;-86
2022/06/22 09:12:04;;;;;;;7.43;1.33;;;20.00;99.90;;;;;;5093627;28;20354;-86
2022/06/22 09:14:51;;;;;;;9.93;2.10;;;20.00;99.90;;;;;;5014198;28;20036;-87
2022/06/22 09:17:52;;;;;;;7.47;2.08;;;20.10;99.90;;;;;;5072192;28;20067;-85
2022/06/22 09:20:38;;;;;;;3.67;1.70;;;20.10;99.90;;;;;;5073164;28;20460;-85
2022/06/22 09:24:04;;;;;;;5.70;1.60;;;20.10;99.90;;;;;;5064169;28;20025;-86
2022/06/22 09:27:13;;;;;;;6.38;1.40;;;20.10;99.90;;;;;;4952975;29;20039;-86
2022/06/22 09:29:50;;;;;;;4.22;1.60;;;20.10;99.90;;;;;;4953102;29;20555;-86
2022/06/22 09:32:41;;;;;;;5.13;1.58;;;20.20;99.90;;;;;;5006464;28;20069;-86
2022/06/22 09:35:26;;;;;;;9.60;1.92;;;20.30;99.90;;;;;;5050103;28;20035;-87
2022/06/22 09:38:08;;;;;;;13.73;2.10;;;20.40;99.90;;;;;;5059348;28;20029;-86
2022/06/22 09:40:59;;;;;;;9.25;1.70;;;20.50;99.90;;;;;;5075113;28;20077;-87
2022/06/22 09:44:15;;;;;;;9.35;1.83;;;20.60;99.90;;;;;;5052667;28;20035;-87
2022/06/22 09:47:06;;;;;;;8.13;1.65;;;20.60;99.90;;;;;;5059732;28;20476;-87
2022/06/22 09:50:01;;;;;;;5.25;1.67;;;20.80;99.90;;;;;;5070622;28;20067;-87
2022/06/22 09:52:44;;;;;;;5.65;1.60;;;20.80;99.90;;;;;;5072471;28;20484;-86
2022/06/22 09:58:22;;;;;;;5.47;1.20;;;20.80;94.60;;;;;;5064208;28;20104;-85
2022/06/22 10:01:32;;;;;;;7.93;1.75;;;20.90;94.90;;;;;;5061587;28;20067;-86
2022/06/22 10:04:25;;;;;;;6.40;2.13;;;20.90;95.90;;;;;;5049098;28;20024;-86
2022/06/22 10:07:09;;;;;;;5.25;1.70;;;20.90;97.50;;;;;;5051259;28;20485;-86
2022/06/22 10:10:03;;;;;;;11.80;1.73;;;21.00;98.50;;;;;;5058623;28;20123;-86
2022/06/22 10:13:20;;;;;;;4.50;1.70;;;21.10;97.90;;;;;;5072832;28;20095;-88
2022/06/22 10:16:06;;;;;;;3.83;1.40;;;21.10;95.80;;;;;;5051293;28;20024;-85
2022/06/22 10:18:38;;;;;;;5.95;1.77;;;21.20;98.00;;;;;;5051064;28;20476;-89
2022/06/22 10:21:35;;;;;;;7.03;1.83;;;21.30;95.80;;;;;;5058793;28;20025;-85
2022/06/22 10:24:13;;;;;;;5.88;1.65;;;21.40;95.90;;;;;;5070709;28;20024;-85
2022/06/22 10:27:11;;;;;;;10.77;1.75;;;21.40;94.80;;;;;;5072521;28;20047;-86
2022/06/22 10:30:12;;;;;;;6.03;1.65;;;21.50;95.50;;;;;;5069726;28;20108;-86
2022/06/22 10:33:19;;;;;;;5.22;1.63;;;21.60;96.00;;;;;;5062769;28;20050;-86
2022/06/22 10:35:44;;;;;;;;;;;21.70;93.10;;;;;;5079582;28;20021;-87
2022/06/22 10:38:28;;;;;;;;;;;21.70;93.00;;;;;;5090817;28;19912;-86
2022/06/22 10:47:13;;;;;;;7.03;2.05;;;21.90;91.80;;;;;;5067018;28;20591;-87
2022/06/22 10:49:49;;;;;;;12.60;1.55;;;21.90;82.00;;;;;;5071470;28;20047;-88
2022/06/22 10:52:38;;;;;;;6.03;1.67;;;21.90;86.70;;;;;;5068830;28;20056;-88
2022/06/22 10:55:10;;;;;;;11.23;2.22;;;21.90;82.00;;;;;;5060920;28;20027;-87
2022/06/22 10:58:13;;;;;;;3.78;1.63;;;21.90;79.80;;;;;;5070827;28;20105;-86
2022/06/22 11:01:10;;;;;;;4.50;1.52;;;21.90;78.10;;;;;;5069910;28;20399;-87
2022/06/22 11:04:00;;;;;;;5.05;1.52;;;22.00;79.00;;;;;;5071251;28;20040;-86
2022/06/22 11:06:50;;;;;;;5.25;1.60;;;22.20;71.00;;;;;;5073704;28;20021;-87
2022/06/22 11:09:42;;;;;;;8.98;1.40;;;22.20;73.10;;;;;;5063210;28;20044;-87
2022/06/22 11:12:32;;;;;;;2.85;1.35;;;22.20;84.20;;;;;;5058567;28;20025;-87
2022/06/22 11:15:25;;;;;;;7.72;1.13;;;22.20;83.40;;;;;;5075096;28;20115;-86
2022/06/22 11:18:31;;;;;;;3.22;1.25;;;22.30;77.40;;;;;;5069512;28;20028;-86
2022/06/22 11:21:33;;;;;;;9.02;1.75;;;22.30;71.90;;;;;;5052656;28;20111;-86
2022/06/22 11:24:07;;;;;;;6.15;1.50;;;22.40;72.40;;;;;;5061298;28;20029;-87
2022/06/22 11:33:36;;;;;;;3.20;1.15;;;22.50;63.30;;;;;;5042744;28;20036;-86
2022/06/22 11:36:17;;;;;;;3.60;1.15;;;22.50;60.70;;;;;;5059257;28;20028;-90
2022/06/22 11:39:15;;;;;;;5.72;1.50;;;22.60;59.50;;;;;;5073961;28;20032;-86
2022/06/22 11:42:06;;;;;;;8.30;2.10;;;22.60;59.30;;;;;;5071705;28;20051;-86
2022/06/22 11:48:07;;;;;;;5.50;1.50;;;22.60;55.70;;;;;;5068515;28;20085;-88
2022/06/22 11:51:10;;;;;;;4.18;1.10;;;22.60;56.80;;;;;;5064914;28;20023;-87
2022/06/22 11:53:51;;;;;;;3.65;1.55;;;22.60;56.00;;;;;;5070158;28;20044;-90
2022/06/22 11:56:48;;;;;;;4.93;1.10;;;22.60;57.40;;;;;;5069387;28;20067;-87
2022/06/22 11:59:54;;;;;;;6.90;1.60;;;22.70;56.70;;;;;;5064359;28;20031;-87
2022/06/22 12:02:53;;;;;;;5.63;1.48;;;22.80;56.30;;;;;;5074819;28;20025;-88
2022/06/22 12:05:44;;;;;;;2.08;1.13;;;22.90;56.20;;;;;;5073978;28;20063;-88
2022/06/22 12:08:27;;;;;;;4.97;1.33;;;23.00;56.40;;;;;;5074242;28;20041;-88
2022/06/22 12:11:44;;;;;;;4.43;1.08;;;23.00;55.30;;;;;;5074926;28;20035;-89
2022/06/22 12:17:26;;;;;;;3.33;1.33;;;23.00;55.50;;;;;;5058769;28;20063;-90
2022/06/22 12:23:12;;;;;;;13.38;2.15;;;23.10;53.90;;;;;;5074025;28;20487;-87
2022/06/22 12:25:44;;;;;;;4.07;1.00;;;23.10;53.40;;;;;;5060003;28;20029;-88
2022/06/22 12:29:11;;;;;;;3.15;1.13;;;23.10;54.60;;;;;;5058560;28;20027;-88
2022/06/22 12:31:47;;;;;;;4.20;1.35;;;23.10;51.80;;;;;;5064063;28;20037;-86
2022/06/22 12:34:25;;;;;;;2.75;1.30;;;23.10;52.40;;;;;;5072636;28;20025;-88
2022/06/22 12:36:57;;;;;;;3.13;1.20;;;23.10;52.10;;;;;;5074093;28;20044;-87
2022/06/22 12:39:50;;;;;;;6.95;1.17;;;23.10;53.50;;;;;;5068607;28;20151;-86
2022/06/22 12:42:45;;;;;;;6.38;1.17;;;23.10;53.10;;;;;;5054126;28;20025;-86
2022/06/22 12:45:14;;;;;;;3.63;1.02;;;23.20;54.10;;;;;;5076056;28;20024;-87
2022/06/22 12:47:58;;;;;;;8.48;2.35;;;23.10;55.30;;;;;;5071263;28;20060;-87
2022/06/22 12:50:45;;;;;;;2.80;0.80;;;23.20;56.10;;;;;;5067380;28;20036;-86
2022/06/22 12:53:24;;;;;;;4.10;1.17;;;23.30;55.20;;;;;;5072858;28;20033;-86
2022/06/22 12:55:58;;;;;;;1.98;0.90;;;23.30;55.20;;;;;;5073389;28;20028;-86
2022/06/22 12:58:29;;;;;;;2.92;1.63;;;23.30;53.10;;;;;;5055468;28;20111;-87
2022/06/22 13:00:58;;;;;;;1.15;0.98;;;23.40;53.90;;;;;;5072914;28;20111;-86
2022/06/22 13:03:32;;;;;;;3.92;1.20;;;23.40;53.60;;;;;;5073010;28;20008;-86
2022/06/22 13:05:58;;;;;;;3.53;0.93;;;23.40;55.10;;;;;;5072938;28;20020;-85
2022/06/22 13:08:26;;;;;;;7.13;1.52;;;23.40;54.20;;;;;;5070368;28;20765;-86
2022/06/22 13:11:02;;;;;;;4.93;1.42;;;23.40;52.00;;;;;;5067577;28;20041;-86
2022/06/22 13:13:48;;;;;;;6.65;2.08;;;23.70;51.10;;;;;;5078523;28;20039;-86
2022/06/22 13:16:19;;;;;;;8.85;2.05;;;23.80;50.90;;;;;;5069257;28;20162;-86
2022/06/22 13:18:49;;;;;;;2.53;0.85;;;23.70;50.30;;;;;;5070836;28;20020;-86
2022/06/22 13:21:39;;;;;;;4.75;1.10;;;23.70;50.80;;;;;;5056873;28;20028;-87
2022/06/22 13:24:10;;;;;;;5.65;1.20;;;23.60;51.40;;;;;;5058688;28;20027;-89
2022/06/22 13:26:55;;;;;;;3.10;0.77;;;23.60;51.50;;;;;;5072774;28;20076;-86
2022/06/22 13:29:52;;;;;;;8.13;1.27;;;23.70;53.40;;;;;;5070986;28;20059;-87
2022/06/22 13:32:21;;;;;;;5.20;1.20;;;23.70;52.70;;;;;;5067988;28;20481;-86
2022/06/22 13:34:51;;;;;;;8.25;1.45;;;23.80;49.50;;;;;;5054999;28;20029;-88
2022/06/22 13:37:39;;;;;;;2.78;1.05;;;23.80;51.00;;;;;;5052629;28;20017;-86
2022/06/22 13:40:29;;;;;;;3.30;1.30;;;23.70;51.50;;;;;;5067692;28;20032;-86
2022/06/22 13:43:24;;;;;;;5.13;1.38;;;23.70;49.80;;;;;;5072534;28;20473;-85
2022/06/22 13:45:56;;;;;;;2.17;1.02;;;23.70;51.70;;;;;;5054021;28;20087;-86
2022/06/22 13:48:50;;;;;;;4.28;1.40;;;23.80;51.00;;;;;;5063865;28;20029;-87
2022/06/22 13:51:29;;;;;;;5.15;1.27;;;23.80;51.20;;;;;;5061256;28;20461;-87
2022/06/22 13:54:29;;;;;;;3.80;1.20;;;23.80;50.40;;;;;;5092058;28;20061;-85
2022/06/22 13:57:46;;;;;;;3.05;1.10;;;23.80;51.10;;;;;;5069475;28;20024;-86
2022/06/22 14:00:18;;;;;;;2.42;0.85;;;23.90;49.20;;;;;;5050407;28;20068;-86
2022/06/22 14:03:06;;;;;;;3.40;1.33;;;23.80;49.80;;;;;;5052173;28;20028;-86
2022/06/22 14:05:48;;;;;;;2.33;0.98;;;23.80;51.40;;;;;;5070753;28;20025;-86
2022/06/22 14:08:16;;;;;;;5.60;1.00;;;23.80;49.90;;;;;;5072006;28;20043;-86
2022/06/22 14:10:52;;;;;;;3.63;1.02;;;23.80;49.70;;;;;;5060760;28;20118;-87
2022/06/22 14:13:42;;;;;;;5.93;0.95;;;23.90;49.30;;;;;;5058857;28;20036;-86
2022/06/22 14:16:14;;;;;;;3.15;1.20;;;23.90;50.40;;;;;;5064247;28;20070;-86
2022/06/22 14:19:00;;;;;;;2.47;1.13;;;23.90;48.40;;;;;;5062328;28;20530;-88
2022/06/22 14:21:36;;;;;;;2.13;1.00;;;23.90;47.90;;;;;;5056920;28;20399;-86
2022/06/22 14:24:17;;;;;;;2.85;1.27;;;23.90;48.50;;;;;;5063633;28;20385;-86
2022/06/22 14:27:17;;;;;;;2.80;1.00;;;23.90;49.10;;;;;;5051934;28;20032;-86
2022/06/22 14:30:24;;;;;;;2.53;1.08;;;23.90;47.70;;;;;;5060347;28;20103;-85
2022/06/22 14:33:02;;;;;;;3.95;1.35;;;23.90;48.20;;;;;;5066170;28;20124;-85
2022/06/22 14:35:50;;;;;;;6.10;1.20;;;23.90;47.90;;;;;;5068948;28;20028;-89
2022/06/22 14:38:57;;;;;;;4.90;1.10;;;24.00;48.20;;;;;;5070242;28;20384;-86
2022/06/22 14:41:34;;;;;;;2.63;1.20;;;24.10;47.90;;;;;;4988512;28;20490;-86
2022/06/22 14:44:26;;;;;;;6.05;1.50;;;24.00;46.80;;;;;;5062773;28;20044;-85
2022/06/22 14:47:20;;;;;;;2.53;1.10;;;24.10;48.40;;;;;;5071486;28;20038;-86
2022/06/22 14:50:09;;;;;;;4.90;1.20;;;24.20;47.90;;;;;;5062930;28;20031;-87